createdAt,value
2022-09-12T00:00:10.580Z,21.29
2022-09-12T00:00:21.599Z,21.30
2022-09-12T00:00:32.608Z,21.29
2022-09-12T00:00:43.624Z,21.29
2022-09-12T00:00:54.597Z,21.30
2022-09-12T00:01:05.593Z,21.30
2022-09-12T00:01:16.689Z,21.30
2022-09-12T00:01:27.722Z,21.30
2022-09-12T00:01:39.695Z,21.29
2022-09-12T00:01:51.625Z,21.30
2022-09-12T00:02:02.638Z,21.29
2022-09-12T00:02:13.645Z,21.30
2022-09-12T00:02:25.589Z,21.29
2022-09-12T00:02:36.605Z,21.30
2022-09-12T00:02:47.604Z,21.30
2022-09-12T00:02:58.632Z,21.30
2022-09-12T00:03:09.638Z,21.30
2022-09-12T00:03:21.561Z,21.29
2022-09-12T00:03:32.585Z,21.30
2022-09-12T00:03:43.600Z,21.30
2022-09-12T00:03:54.607Z,21.29
2022-09-12T00:04:05.619Z,21.30
2022-09-12T00:04:16.635Z,21.29
2022-09-12T00:04:28.632Z,21.29
2022-09-12T00:04:39.551Z,21.29
2022-09-12T00:04:50.552Z,21.30
2022-09-12T00:05:01.559Z,21.30
2022-09-12T00:05:12.560Z,21.29
2022-09-12T00:05:23.604Z,21.29
2022-09-12T00:05:34.613Z,21.30
2022-09-12T00:05:45.624Z,21.30
2022-09-12T00:05:56.632Z,21.29
2022-09-12T00:06:07.646Z,21.30
2022-09-12T00:06:22.833Z,21.30
2022-09-12T00:06:30.576Z,21.29
2022-09-12T00:06:41.602Z,21.30
2022-09-12T00:06:52.658Z,21.30
2022-09-12T00:07:04.576Z,21.29
2022-09-12T00:07:15.596Z,21.30
2022-09-12T00:07:26.609Z,21.29
2022-09-12T00:07:37.635Z,21.29
2022-09-12T00:07:48.636Z,21.29
2022-09-12T00:08:00.556Z,21.29
2022-09-12T00:08:11.576Z,21.29
2022-09-12T00:08:22.588Z,21.30
2022-09-12T00:08:33.595Z,21.29
2022-09-12T00:08:44.701Z,21.29
2022-09-12T00:08:56.588Z,21.30
2022-09-12T00:09:07.608Z,21.29
2022-09-12T00:09:18.622Z,21.29
2022-09-12T00:09:29.644Z,21.30
2022-09-12T00:09:40.554Z,21.30
2022-09-12T00:09:51.652Z,21.29
2022-09-12T00:10:03.568Z,21.27
2022-09-12T00:10:14.572Z,21.29
2022-09-12T00:10:25.581Z,21.29
2022-09-12T00:10:36.597Z,21.30
2022-09-12T00:10:47.603Z,21.29
2022-09-12T00:10:58.625Z,21.30
2022-09-12T00:11:09.637Z,21.29
2022-09-12T00:11:21.560Z,21.27
2022-09-12T00:11:32.588Z,21.29
2022-09-12T00:11:43.601Z,21.29
2022-09-12T00:11:54.605Z,21.29
2022-09-12T00:12:05.619Z,21.29
2022-09-12T00:12:16.632Z,21.29
2022-09-12T00:12:27.647Z,21.29
2022-09-12T00:12:39.567Z,21.29
2022-09-12T00:12:50.571Z,21.25
2022-09-12T00:13:01.594Z,21.30
2022-09-12T00:13:12.613Z,21.29
2022-09-12T00:13:23.623Z,21.30
2022-09-12T00:13:38.344Z,21.27
2022-09-12T00:13:47.612Z,21.27
2022-09-12T00:13:58.617Z,21.27
2022-09-12T00:14:09.624Z,21.29
2022-09-12T00:14:20.663Z,21.27
2022-09-12T00:14:31.653Z,21.30
2022-09-12T00:14:43.572Z,21.27
2022-09-12T00:14:54.587Z,21.27
2022-09-12T00:15:05.606Z,21.30
2022-09-12T00:15:16.625Z,21.29
2022-09-12T00:15:27.632Z,21.27
2022-09-12T00:15:38.659Z,21.29
2022-09-12T00:15:50.564Z,21.29
2022-09-12T00:16:01.581Z,21.27
2022-09-12T00:16:12.626Z,21.29
2022-09-12T00:16:23.664Z,21.27
2022-09-12T00:16:34.704Z,21.29
2022-09-12T00:16:46.647Z,21.29
2022-09-12T00:16:57.600Z,21.29
2022-09-12T00:17:08.637Z,21.29
2022-09-12T00:17:19.639Z,21.29
2022-09-12T00:17:31.639Z,21.27
2022-09-12T00:17:43.654Z,21.27
2022-09-12T00:17:55.573Z,21.29
2022-09-12T00:18:06.585Z,21.27
2022-09-12T00:18:17.594Z,21.29
2022-09-12T00:18:28.612Z,21.27
2022-09-12T00:18:39.621Z,21.29
2022-09-12T00:18:50.631Z,21.27
2022-09-12T00:19:01.640Z,21.25
2022-09-12T00:19:12.557Z,21.27
2022-09-12T00:19:23.582Z,21.27
2022-09-12T00:19:34.603Z,21.27
2022-09-12T00:19:45.630Z,21.27
2022-09-12T00:19:56.629Z,21.29
2022-09-12T00:20:07.633Z,21.27
2022-09-12T00:20:19.561Z,21.27
2022-09-12T00:20:30.571Z,21.27
2022-09-12T00:20:41.577Z,21.27
2022-09-12T00:20:52.598Z,21.29
2022-09-12T00:21:03.618Z,21.29
2022-09-12T00:21:15.626Z,21.27
2022-09-12T00:21:26.641Z,21.27
2022-09-12T00:21:37.652Z,21.27
2022-09-12T00:21:48.563Z,21.27
2022-09-12T00:21:59.576Z,21.29
2022-09-12T00:22:10.596Z,21.27
2022-09-12T00:22:21.616Z,21.29
2022-09-12T00:22:32.628Z,21.29
2022-09-12T00:22:43.666Z,21.27
2022-09-12T00:22:55.585Z,21.27
2022-09-12T00:23:06.594Z,21.27
2022-09-12T00:23:17.597Z,21.29
2022-09-12T00:23:28.612Z,21.25
2022-09-12T00:23:39.619Z,21.29
2022-09-12T00:23:50.628Z,21.29
2022-09-12T00:24:01.631Z,21.29
2022-09-12T00:24:12.641Z,21.29
2022-09-12T00:24:23.645Z,21.25
2022-09-12T00:24:35.568Z,21.29
2022-09-12T00:24:46.598Z,21.29
2022-09-12T00:24:57.602Z,21.25
2022-09-12T00:25:08.605Z,21.29
2022-09-12T00:25:19.613Z,21.27
2022-09-12T00:25:30.626Z,21.29
2022-09-12T00:25:41.640Z,21.29
2022-09-12T00:25:52.551Z,21.27
2022-09-12T00:26:03.572Z,21.27
2022-09-12T00:26:14.589Z,21.27
2022-09-12T00:26:25.599Z,21.27
2022-09-12T00:26:36.612Z,21.27
2022-09-12T00:26:47.617Z,21.27
2022-09-12T00:26:58.642Z,21.25
2022-09-12T00:27:09.554Z,21.25
2022-09-12T00:27:20.572Z,21.27
2022-09-12T00:27:31.591Z,21.29
2022-09-12T00:27:42.606Z,21.27
2022-09-12T00:27:53.627Z,21.27
2022-09-12T00:28:04.649Z,21.25
2022-09-12T00:28:16.669Z,21.27
2022-09-12T00:28:28.586Z,21.25
2022-09-12T00:28:39.598Z,21.27
2022-09-12T00:28:50.617Z,21.27
2022-09-12T00:29:01.618Z,21.27
2022-09-12T00:29:12.624Z,21.25
2022-09-12T00:29:23.661Z,21.27
2022-09-12T00:29:35.562Z,21.25
2022-09-12T00:29:46.567Z,21.25
2022-09-12T00:29:57.576Z,21.25
2022-09-12T00:30:08.588Z,21.25
2022-09-12T00:30:19.596Z,21.25
2022-09-12T00:30:30.603Z,21.27
2022-09-12T00:30:41.619Z,21.27
2022-09-12T00:30:52.629Z,21.27
2022-09-12T00:31:03.552Z,21.25
2022-09-12T00:31:14.756Z,21.25
2022-09-12T00:31:25.624Z,21.29
2022-09-12T00:31:36.699Z,21.25
2022-09-12T00:31:48.647Z,21.27
2022-09-12T00:31:59.649Z,21.29
2022-09-12T00:32:10.607Z,21.29
2022-09-12T00:32:21.619Z,21.27
2022-09-12T00:32:32.631Z,21.25
2022-09-12T00:32:43.662Z,21.27
2022-09-12T00:32:55.581Z,21.25
2022-09-12T00:33:06.585Z,21.27
2022-09-12T00:33:17.608Z,21.25
2022-09-12T00:33:28.610Z,21.27
2022-09-12T00:33:39.638Z,21.25
2022-09-12T00:33:50.647Z,21.27
2022-09-12T00:34:02.562Z,21.27
2022-09-12T00:34:13.578Z,21.27
2022-09-12T00:34:24.589Z,21.27
2022-09-12T00:34:35.608Z,21.25
2022-09-12T00:34:46.616Z,21.25
2022-09-12T00:34:57.624Z,21.25
2022-09-12T00:35:08.657Z,21.29
2022-09-12T00:35:19.661Z,21.27
2022-09-12T00:35:31.588Z,21.27
2022-09-12T00:35:42.602Z,21.27
2022-09-12T00:35:53.610Z,21.25
2022-09-12T00:36:04.625Z,21.27
2022-09-12T00:36:15.647Z,21.25
2022-09-12T00:36:27.651Z,21.27
2022-09-12T00:36:38.576Z,21.25
2022-09-12T00:36:49.589Z,21.27
2022-09-12T00:37:00.598Z,21.27
2022-09-12T00:37:11.613Z,21.25
2022-09-12T00:37:22.630Z,21.25
2022-09-12T00:37:33.641Z,21.25
2022-09-12T00:37:44.689Z,21.27
2022-09-12T00:37:56.608Z,21.25
2022-09-12T00:38:07.638Z,21.25
2022-09-12T00:38:19.580Z,21.25
2022-09-12T00:38:30.586Z,21.27
2022-09-12T00:38:41.690Z,21.27
2022-09-12T00:38:52.642Z,21.25
2022-09-12T00:39:03.649Z,21.25
2022-09-12T00:39:14.658Z,21.27
2022-09-12T00:39:25.575Z,21.25
2022-09-12T00:39:36.702Z,21.24
2022-09-12T00:39:47.632Z,21.27
2022-09-12T00:39:58.675Z,21.27
2022-09-12T00:40:09.714Z,21.25
2022-09-12T00:40:21.578Z,21.27
2022-09-12T00:40:32.588Z,21.25
2022-09-12T00:40:43.600Z,21.25
2022-09-12T00:40:54.604Z,21.25
2022-09-12T00:41:05.619Z,21.25
2022-09-12T00:41:16.626Z,21.25
2022-09-12T00:41:27.640Z,21.25
2022-09-12T00:41:38.669Z,21.27
2022-09-12T00:41:50.669Z,21.25
2022-09-12T00:42:02.573Z,21.27
2022-09-12T00:42:13.578Z,21.25
2022-09-12T00:42:24.596Z,21.24
2022-09-12T00:42:35.608Z,21.27
2022-09-12T00:42:46.631Z,21.25
2022-09-12T00:42:57.644Z,21.25
2022-09-12T00:43:08.553Z,21.27
2022-09-12T00:43:19.572Z,21.25
2022-09-12T00:43:30.588Z,21.25
2022-09-12T00:43:41.595Z,21.25
2022-09-12T00:43:52.607Z,21.25
2022-09-12T00:44:03.626Z,21.25
2022-09-12T00:44:14.628Z,21.25
2022-09-12T00:44:25.663Z,21.25
2022-09-12T00:44:36.652Z,21.24
2022-09-12T00:44:47.566Z,21.25
2022-09-12T00:44:58.595Z,21.27
2022-09-12T00:45:09.607Z,21.24
2022-09-12T00:45:20.621Z,21.25
2022-09-12T00:45:31.652Z,21.25
2022-09-12T00:45:42.683Z,21.25
2022-09-12T00:45:53.601Z,21.27
2022-09-12T00:46:04.606Z,21.25
2022-09-12T00:46:15.581Z,21.27
2022-09-12T00:46:26.588Z,21.24
2022-09-12T00:46:37.609Z,21.25
2022-09-12T00:46:49.614Z,21.25
2022-09-12T00:47:00.636Z,21.25
2022-09-12T00:47:11.649Z,21.25
2022-09-12T00:47:22.571Z,21.25
2022-09-12T00:47:33.610Z,21.24
2022-09-12T00:47:44.627Z,21.24
2022-09-12T00:47:55.642Z,21.25
2022-09-12T00:48:06.655Z,21.25
2022-09-12T00:48:18.586Z,21.25
2022-09-12T00:48:29.593Z,21.24
2022-09-12T00:48:40.609Z,21.22
2022-09-12T00:48:52.616Z,21.22
2022-09-12T00:49:03.635Z,21.24
2022-09-12T00:49:14.640Z,21.25
2022-09-12T00:49:25.548Z,21.25
2022-09-12T00:49:36.572Z,21.25
2022-09-12T00:49:47.589Z,21.24
2022-09-12T00:49:58.602Z,21.24
2022-09-12T00:50:09.612Z,21.24
2022-09-12T00:50:20.629Z,21.27
2022-09-12T00:50:31.646Z,21.24
2022-09-12T00:50:42.548Z,21.24
2022-09-12T00:50:53.554Z,21.25
2022-09-12T00:51:04.561Z,21.25
2022-09-12T00:51:15.581Z,21.24
2022-09-12T00:51:26.597Z,21.25
2022-09-12T00:51:37.612Z,21.25
2022-09-12T00:51:48.631Z,21.27
2022-09-12T00:51:59.653Z,21.25
2022-09-12T00:52:11.661Z,21.24
2022-09-12T00:52:23.585Z,21.25
2022-09-12T00:52:34.608Z,21.24
2022-09-12T00:52:45.615Z,21.25
2022-09-12T00:52:56.626Z,21.24
2022-09-12T00:53:07.637Z,21.24
2022-09-12T00:53:18.655Z,21.24
2022-09-12T00:53:30.576Z,21.25
2022-09-12T00:53:41.593Z,21.25
2022-09-12T00:53:52.597Z,21.24
2022-09-12T00:54:03.610Z,21.25
2022-09-12T00:54:14.636Z,21.25
2022-09-12T00:54:25.639Z,21.24
2022-09-12T00:54:36.554Z,21.24
2022-09-12T00:54:47.677Z,21.25
2022-09-12T00:54:59.598Z,21.24
2022-09-12T00:55:10.606Z,21.24
2022-09-12T00:55:21.620Z,21.25
2022-09-12T00:55:32.631Z,21.24
2022-09-12T00:55:43.655Z,21.22
2022-09-12T00:55:55.560Z,21.24
2022-09-12T00:56:06.562Z,21.24
2022-09-12T00:56:17.570Z,21.24
2022-09-12T00:56:28.581Z,21.25
2022-09-12T00:56:39.585Z,21.24
2022-09-12T00:56:50.586Z,21.24
2022-09-12T00:57:01.601Z,21.25
2022-09-12T00:57:12.611Z,21.25
2022-09-12T00:57:23.619Z,21.22
2022-09-12T00:57:34.644Z,21.24
2022-09-12T00:57:46.564Z,21.24
2022-09-12T00:57:57.579Z,21.25
2022-09-12T00:58:08.582Z,21.24
2022-09-12T00:58:19.592Z,21.25
2022-09-12T00:58:30.600Z,21.22
2022-09-12T00:58:41.657Z,21.25
2022-09-12T00:58:52.622Z,21.24
2022-09-12T00:59:04.625Z,21.24
2022-09-12T00:59:15.639Z,21.25
2022-09-12T00:59:27.644Z,21.25
2022-09-12T00:59:38.726Z,21.24
2022-09-12T00:59:50.574Z,21.24
2022-09-12T01:00:01.580Z,21.24
2022-09-12T01:00:12.593Z,21.22
2022-09-12T01:00:23.598Z,21.25
2022-09-12T01:00:34.609Z,21.22
2022-09-12T01:00:46.688Z,21.22
2022-09-12T01:00:57.750Z,21.24
2022-09-12T01:01:08.801Z,21.25
2022-09-12T01:01:20.720Z,21.24
2022-09-12T01:01:32.778Z,21.25
2022-09-12T01:01:43.817Z,21.22
2022-09-12T01:01:54.756Z,21.22
2022-09-12T01:02:06.754Z,21.24
2022-09-12T01:02:17.674Z,21.24
2022-09-12T01:02:28.664Z,21.24
2022-09-12T01:02:39.663Z,21.24
2022-09-12T01:02:50.567Z,21.24
2022-09-12T01:03:01.578Z,21.24
2022-09-12T01:03:12.586Z,21.24
2022-09-12T01:03:23.598Z,21.24
2022-09-12T01:03:34.615Z,21.24
2022-09-12T01:03:45.619Z,21.24
2022-09-12T01:03:56.623Z,21.24
2022-09-12T01:04:08.628Z,21.22
2022-09-12T01:04:19.548Z,21.24
2022-09-12T01:04:30.568Z,21.24
2022-09-12T01:04:41.585Z,21.22
2022-09-12T01:04:53.593Z,21.22
2022-09-12T01:05:04.612Z,21.24
2022-09-12T01:05:16.617Z,21.24
2022-09-12T01:05:27.628Z,21.22
2022-09-12T01:05:39.633Z,21.24
2022-09-12T01:05:50.634Z,21.24
2022-09-12T01:06:01.550Z,21.24
2022-09-12T01:06:12.654Z,21.24
2022-09-12T01:06:24.569Z,21.25
2022-09-12T01:06:35.570Z,21.24
2022-09-12T01:06:46.591Z,21.22
2022-09-12T01:06:57.600Z,21.24
2022-09-12T01:07:08.616Z,21.22
2022-09-12T01:07:19.630Z,21.22
2022-09-12T01:07:31.655Z,21.24
2022-09-12T01:07:43.573Z,21.22
2022-09-12T01:07:54.583Z,21.24
2022-09-12T01:08:05.592Z,21.22
2022-09-12T01:08:16.600Z,21.24
2022-09-12T01:08:27.610Z,21.24
2022-09-12T01:08:38.619Z,21.24
2022-09-12T01:08:49.626Z,21.24
2022-09-12T01:09:00.637Z,21.25
2022-09-12T01:09:11.643Z,21.24
2022-09-12T01:09:22.650Z,21.24
2022-09-12T01:09:34.566Z,21.22
2022-09-12T01:09:45.573Z,21.22
2022-09-12T01:09:56.580Z,21.24
2022-09-12T01:10:08.583Z,21.24
2022-09-12T01:10:19.599Z,21.24
2022-09-12T01:10:30.608Z,21.22
2022-09-12T01:10:41.616Z,21.22
2022-09-12T01:10:52.625Z,21.22
2022-09-12T01:11:03.628Z,21.24
2022-09-12T01:11:14.642Z,21.22
2022-09-12T01:11:26.644Z,21.24
2022-09-12T01:11:38.551Z,21.22
2022-09-12T01:11:49.562Z,21.24
2022-09-12T01:12:00.574Z,21.24
2022-09-12T01:12:11.586Z,21.24
2022-09-12T01:12:22.614Z,21.22
2022-09-12T01:12:33.659Z,21.25
2022-09-12T01:12:45.572Z,21.22
2022-09-12T01:12:56.581Z,21.24
2022-09-12T01:13:07.587Z,21.24
2022-09-12T01:13:18.611Z,21.22
2022-09-12T01:13:29.632Z,21.25
2022-09-12T01:13:40.638Z,21.24
2022-09-12T01:13:51.650Z,21.24
2022-09-12T01:14:03.577Z,21.22
2022-09-12T01:14:14.596Z,21.24
2022-09-12T01:14:25.614Z,21.22
2022-09-12T01:14:37.619Z,21.22
2022-09-12T01:14:48.648Z,21.24
2022-09-12T01:14:59.632Z,21.24
2022-09-12T01:15:10.636Z,21.22
2022-09-12T01:15:22.645Z,21.21
2022-09-12T01:15:34.565Z,21.22
2022-09-12T01:15:45.570Z,21.22
2022-09-12T01:15:56.577Z,21.22
2022-09-12T01:16:08.590Z,21.21
2022-09-12T01:16:19.631Z,21.22
2022-09-12T01:16:30.624Z,21.22
2022-09-12T01:16:41.641Z,21.22
2022-09-12T01:16:52.616Z,21.21
2022-09-12T01:17:03.624Z,21.22
2022-09-12T01:17:15.640Z,21.22
2022-09-12T01:17:26.550Z,21.22
2022-09-12T01:17:37.584Z,21.21
2022-09-12T01:17:48.604Z,21.22
2022-09-12T01:17:59.625Z,21.22
2022-09-12T01:18:10.642Z,21.22
2022-09-12T01:18:22.567Z,21.24
2022-09-12T01:18:33.578Z,21.22
2022-09-12T01:18:44.645Z,21.22
2022-09-12T01:18:55.635Z,21.22
2022-09-12T01:19:06.647Z,21.22
2022-09-12T01:19:18.557Z,21.24
2022-09-12T01:19:29.568Z,21.22
2022-09-12T01:19:40.590Z,21.22
2022-09-12T01:19:52.593Z,21.21
2022-09-12T01:20:03.599Z,21.22
2022-09-12T01:20:14.622Z,21.24
2022-09-12T01:20:25.629Z,21.22
2022-09-12T01:20:36.632Z,21.24
2022-09-12T01:20:48.637Z,21.22
2022-09-12T01:20:59.551Z,21.22
2022-09-12T01:21:10.560Z,21.22
2022-09-12T01:21:21.561Z,21.24
2022-09-12T01:21:32.578Z,21.22
2022-09-12T01:21:43.592Z,21.22
2022-09-12T01:21:54.595Z,21.22
2022-09-12T01:22:06.602Z,21.22
2022-09-12T01:22:17.622Z,21.22
2022-09-12T01:22:28.622Z,21.21
2022-09-12T01:22:40.644Z,21.22
2022-09-12T01:22:52.568Z,21.22
2022-09-12T01:23:03.593Z,21.22
2022-09-12T01:23:14.606Z,21.22
2022-09-12T01:23:26.604Z,21.22
2022-09-12T01:23:37.606Z,21.22
2022-09-12T01:23:48.611Z,21.22
2022-09-12T01:23:59.618Z,21.22
2022-09-12T01:24:10.634Z,21.22
2022-09-12T01:24:21.634Z,21.22
2022-09-12T01:24:33.640Z,21.22
2022-09-12T01:24:45.640Z,21.22
2022-09-12T01:24:56.549Z,21.22
2022-09-12T01:25:07.556Z,21.22
2022-09-12T01:25:19.559Z,21.22
2022-09-12T01:25:31.563Z,21.22
2022-09-12T01:25:42.567Z,21.22
2022-09-12T01:25:54.573Z,21.22
2022-09-12T01:26:05.594Z,21.22
2022-09-12T01:26:16.618Z,21.22
2022-09-12T01:26:27.626Z,21.21
2022-09-12T01:26:39.630Z,21.20
2022-09-12T01:26:50.636Z,21.22
2022-09-12T01:27:01.632Z,21.22
2022-09-12T01:27:12.636Z,21.21
2022-09-12T01:27:23.641Z,21.22
2022-09-12T01:27:35.556Z,21.22
2022-09-12T01:27:46.574Z,21.22
2022-09-12T01:27:57.576Z,21.21
2022-09-12T01:28:08.628Z,21.22
2022-09-12T01:28:19.631Z,21.21
2022-09-12T01:28:30.548Z,21.21
2022-09-12T01:28:41.693Z,21.21
2022-09-12T01:28:53.567Z,21.24
2022-09-12T01:29:04.581Z,21.21
2022-09-12T01:29:15.581Z,21.22
2022-09-12T01:29:26.601Z,21.22
2022-09-12T01:29:37.693Z,21.22
2022-09-12T01:29:48.622Z,21.22
2022-09-12T01:29:59.656Z,21.21
2022-09-12T01:30:10.647Z,21.22
2022-09-12T01:30:22.653Z,21.22
2022-09-12T01:30:34.564Z,21.21
2022-09-12T01:30:45.582Z,21.22
2022-09-12T01:30:56.589Z,21.21
2022-09-12T01:31:08.596Z,21.22
2022-09-12T01:31:19.608Z,21.21
2022-09-12T01:31:30.612Z,21.21
2022-09-12T01:31:41.629Z,21.20
2022-09-12T01:31:52.697Z,21.22
2022-09-12T01:32:04.613Z,21.22
2022-09-12T01:32:15.627Z,21.21
2022-09-12T01:32:26.625Z,21.22
2022-09-12T01:32:37.624Z,21.22
2022-09-12T01:32:48.642Z,21.21
2022-09-12T01:33:00.558Z,21.21
2022-09-12T01:33:11.570Z,21.21
2022-09-12T01:33:22.571Z,21.21
2022-09-12T01:33:33.588Z,21.21
2022-09-12T01:33:44.596Z,21.20
2022-09-12T01:33:55.604Z,21.21
2022-09-12T01:34:06.627Z,21.22
2022-09-12T01:34:17.646Z,21.21
2022-09-12T01:34:29.552Z,21.22
2022-09-12T01:34:40.551Z,21.22
2022-09-12T01:34:51.568Z,21.22
2022-09-12T01:35:02.573Z,21.21
2022-09-12T01:35:13.581Z,21.20
2022-09-12T01:35:24.591Z,21.22
2022-09-12T01:35:35.595Z,21.21
2022-09-12T01:35:46.666Z,21.22
2022-09-12T01:35:57.612Z,21.22
2022-09-12T01:36:08.613Z,21.21
2022-09-12T01:36:19.624Z,21.22
2022-09-12T01:36:30.630Z,21.20
2022-09-12T01:36:41.552Z,21.21
2022-09-12T01:36:52.561Z,21.21
2022-09-12T01:37:03.581Z,21.22
2022-09-12T01:37:14.593Z,21.22
2022-09-12T01:37:25.599Z,21.21
2022-09-12T01:37:36.621Z,21.21
2022-09-12T01:37:47.660Z,21.21
2022-09-12T01:37:59.567Z,21.21
2022-09-12T01:38:10.588Z,21.22
2022-09-12T01:38:21.616Z,21.20
2022-09-12T01:38:32.625Z,21.22
2022-09-12T01:38:43.680Z,21.22
2022-09-12T01:38:54.645Z,21.21
2022-09-12T01:39:05.662Z,21.21
2022-09-12T01:39:17.571Z,21.21
2022-09-12T01:39:28.580Z,21.21
2022-09-12T01:39:39.659Z,21.22
2022-09-12T01:39:51.661Z,21.22
2022-09-12T01:40:02.677Z,21.21
2022-09-12T01:40:13.724Z,21.21
2022-09-12T01:40:25.596Z,21.22
2022-09-12T01:40:36.603Z,21.21
2022-09-12T01:40:48.604Z,21.21
2022-09-12T01:40:59.623Z,21.21
2022-09-12T01:41:10.639Z,21.22
2022-09-12T01:41:21.642Z,21.20
2022-09-12T01:41:32.646Z,21.21
2022-09-12T01:41:43.561Z,21.21
2022-09-12T01:41:54.595Z,21.21
2022-09-12T01:42:05.582Z,21.21
2022-09-12T01:42:16.581Z,21.20
2022-09-12T01:42:27.599Z,21.20
2022-09-12T01:42:38.601Z,21.21
2022-09-12T01:42:49.633Z,21.22
2022-09-12T01:43:00.642Z,21.20
2022-09-12T01:43:11.652Z,21.22
2022-09-12T01:43:23.567Z,21.20
2022-09-12T01:43:35.573Z,21.21
2022-09-12T01:43:46.575Z,21.21
2022-09-12T01:43:57.583Z,21.21
2022-09-12T01:44:08.596Z,21.21
2022-09-12T01:44:19.606Z,21.22
2022-09-12T01:44:30.615Z,21.21
2022-09-12T01:44:41.629Z,21.20
2022-09-12T01:44:52.628Z,21.21
2022-09-12T01:45:03.652Z,21.21
2022-09-12T01:45:14.641Z,21.21
2022-09-12T01:45:25.749Z,21.21
2022-09-12T01:45:37.687Z,21.21
2022-09-12T01:45:49.648Z,21.21
2022-09-12T01:46:00.699Z,21.20
2022-09-12T01:46:12.559Z,21.21
2022-09-12T01:46:24.572Z,21.20
2022-09-12T01:46:35.586Z,21.21
2022-09-12T01:46:46.599Z,21.20
2022-09-12T01:46:57.610Z,21.20
2022-09-12T01:47:08.624Z,21.21
2022-09-12T01:47:19.629Z,21.20
2022-09-12T01:47:30.643Z,21.20
2022-09-12T01:47:42.651Z,21.21
2022-09-12T01:47:54.585Z,21.20
2022-09-12T01:48:05.595Z,21.21
2022-09-12T01:48:16.594Z,21.21
2022-09-12T01:48:27.605Z,21.20
2022-09-12T01:48:38.624Z,21.21
2022-09-12T01:48:49.631Z,21.20
2022-09-12T01:49:00.643Z,21.21
2022-09-12T01:49:12.565Z,21.20
2022-09-12T01:49:23.584Z,21.21
2022-09-12T01:49:34.601Z,21.20
2022-09-12T01:49:45.630Z,21.20
2022-09-12T01:49:57.657Z,21.21
2022-09-12T01:50:09.587Z,21.18
2022-09-12T01:50:20.593Z,21.20
2022-09-12T01:50:31.613Z,21.22
2022-09-12T01:50:42.620Z,21.22
2022-09-12T01:50:53.680Z,21.21
2022-09-12T01:51:05.600Z,21.20
2022-09-12T01:51:16.607Z,21.21
2022-09-12T01:51:27.627Z,21.21
2022-09-12T01:51:38.624Z,21.21
2022-09-12T01:51:49.638Z,21.18
2022-09-12T01:52:00.647Z,21.20
2022-09-12T01:52:12.658Z,21.21
2022-09-12T01:52:24.576Z,21.21
2022-09-12T01:52:35.589Z,21.20
2022-09-12T01:52:46.592Z,21.20
2022-09-12T01:52:57.621Z,21.20
2022-09-12T01:53:08.634Z,21.18
2022-09-12T01:53:19.644Z,21.21
2022-09-12T01:53:31.658Z,21.18
2022-09-12T01:53:42.574Z,21.21
2022-09-12T01:53:53.597Z,21.18
2022-09-12T01:54:04.607Z,21.20
2022-09-12T01:54:15.619Z,21.21
2022-09-12T01:54:26.632Z,21.20
2022-09-12T01:54:37.648Z,21.20
2022-09-12T01:54:49.663Z,21.20
2022-09-12T01:55:01.584Z,21.20
2022-09-12T01:55:12.597Z,21.20
2022-09-12T01:55:23.604Z,21.20
2022-09-12T01:55:34.613Z,21.20
2022-09-12T01:55:45.630Z,21.20
2022-09-12T01:55:56.641Z,21.20
2022-09-12T01:56:07.647Z,21.18
2022-09-12T01:56:19.560Z,21.20
2022-09-12T01:56:30.569Z,21.20
2022-09-12T01:56:41.585Z,21.21
2022-09-12T01:56:52.590Z,21.18
2022-09-12T01:57:04.591Z,21.21
2022-09-12T01:57:15.598Z,21.21
2022-09-12T01:57:26.613Z,21.20
2022-09-12T01:57:37.632Z,21.18
2022-09-12T01:57:48.642Z,21.20
2022-09-12T01:57:59.566Z,21.20
2022-09-12T01:58:10.589Z,21.21
2022-09-12T01:58:21.596Z,21.18
2022-09-12T01:58:32.623Z,21.20
2022-09-12T01:58:43.708Z,21.20
2022-09-12T01:58:55.593Z,21.20
2022-09-12T01:59:06.606Z,21.20
2022-09-12T01:59:17.616Z,21.22
2022-09-12T01:59:28.633Z,21.20
2022-09-12T01:59:39.650Z,21.20
2022-09-12T01:59:50.565Z,21.20
2022-09-12T02:00:01.579Z,21.18
2022-09-12T02:00:12.610Z,21.21
2022-09-12T02:00:23.607Z,21.18
2022-09-12T02:00:34.626Z,21.18
2022-09-12T02:00:46.689Z,21.18
2022-09-12T02:00:57.701Z,21.20
2022-09-12T02:01:08.721Z,21.20
2022-09-12T02:01:20.654Z,21.20
2022-09-12T02:01:31.668Z,21.20
2022-09-12T02:01:42.632Z,21.18
2022-09-12T02:01:53.658Z,21.20
2022-09-12T02:02:05.617Z,21.20
2022-09-12T02:02:16.646Z,21.20
2022-09-12T02:02:27.624Z,21.21
2022-09-12T02:02:38.605Z,21.21
2022-09-12T02:02:49.631Z,21.20
2022-09-12T02:03:00.658Z,21.18
2022-09-12T02:03:12.562Z,21.18
2022-09-12T02:03:23.572Z,21.20
2022-09-12T02:03:34.593Z,21.20
2022-09-12T02:03:45.616Z,21.18
2022-09-12T02:03:56.624Z,21.21
2022-09-12T02:04:07.632Z,21.17
2022-09-12T02:04:18.647Z,21.21
2022-09-12T02:04:33.599Z,21.18
2022-09-12T02:04:40.654Z,21.20
2022-09-12T02:04:52.599Z,21.18
2022-09-12T02:05:03.596Z,21.18
2022-09-12T02:05:14.610Z,21.20
2022-09-12T02:05:25.624Z,21.18
2022-09-12T02:05:36.644Z,21.18
2022-09-12T02:05:47.658Z,21.18
2022-09-12T02:05:59.584Z,21.18
2022-09-12T02:06:10.610Z,21.20
2022-09-12T02:06:21.619Z,21.18
2022-09-12T02:06:32.621Z,21.20
2022-09-12T02:06:43.630Z,21.18
2022-09-12T02:06:54.644Z,21.20
2022-09-12T02:07:05.656Z,21.20
2022-09-12T02:07:16.662Z,21.18
2022-09-12T02:07:27.666Z,21.18
2022-09-12T02:07:39.584Z,21.21
2022-09-12T02:07:50.587Z,21.18
2022-09-12T02:08:01.631Z,21.20
2022-09-12T02:08:12.637Z,21.18
2022-09-12T02:08:23.648Z,21.18
2022-09-12T02:08:34.565Z,21.20
2022-09-12T02:08:45.714Z,21.20
2022-09-12T02:08:56.610Z,21.20
2022-09-12T02:09:07.620Z,21.18
2022-09-12T02:09:18.635Z,21.20
2022-09-12T02:09:29.651Z,21.18
2022-09-12T02:09:40.562Z,21.18
2022-09-12T02:09:51.564Z,21.18
2022-09-12T02:10:03.573Z,21.18
2022-09-12T02:10:14.586Z,21.20
2022-09-12T02:10:29.145Z,21.18
2022-09-12T02:10:38.582Z,21.18
2022-09-12T02:10:48.592Z,21.18
2022-09-12T02:10:59.594Z,21.18
2022-09-12T02:11:10.604Z,21.18
2022-09-12T02:11:21.620Z,21.17
2022-09-12T02:11:32.632Z,21.20
2022-09-12T02:11:43.652Z,21.20
2022-09-12T02:11:54.656Z,21.18
2022-09-12T02:12:06.579Z,21.20
2022-09-12T02:12:17.583Z,21.20
2022-09-12T02:12:28.590Z,21.18
2022-09-12T02:12:39.597Z,21.18
2022-09-12T02:12:50.609Z,21.18
2022-09-12T02:13:01.633Z,21.18
2022-09-12T02:13:12.640Z,21.18
2022-09-12T02:13:23.644Z,21.18
2022-09-12T02:13:34.654Z,21.17
2022-09-12T02:13:45.562Z,21.20
2022-09-12T02:13:56.577Z,21.18
2022-09-12T02:14:08.582Z,21.18
2022-09-12T02:14:19.598Z,21.18
2022-09-12T02:14:30.607Z,21.20
2022-09-12T02:14:41.616Z,21.20
2022-09-12T02:14:52.632Z,21.18
2022-09-12T02:15:03.640Z,21.18
2022-09-12T02:15:14.662Z,21.20
2022-09-12T02:15:25.662Z,21.20
2022-09-12T02:15:37.583Z,21.20
2022-09-12T02:15:48.591Z,21.17
2022-09-12T02:15:59.600Z,21.18
2022-09-12T02:16:10.750Z,21.18
2022-09-12T02:16:21.703Z,21.20
2022-09-12T02:16:33.596Z,21.20
2022-09-12T02:16:44.657Z,21.20
2022-09-12T02:16:55.612Z,21.17
2022-09-12T02:17:06.630Z,21.18
2022-09-12T02:17:17.641Z,21.18
2022-09-12T02:17:28.657Z,21.18
2022-09-12T02:17:39.667Z,21.18
2022-09-12T02:17:51.594Z,21.18
2022-09-12T02:18:02.622Z,21.18
2022-09-12T02:18:13.637Z,21.20
2022-09-12T02:18:24.642Z,21.17
2022-09-12T02:18:35.648Z,21.18
2022-09-12T02:18:47.724Z,21.18
2022-09-12T02:18:58.628Z,21.18
2022-09-12T02:19:09.638Z,21.18
2022-09-12T02:19:20.648Z,21.17
2022-09-12T02:19:31.660Z,21.17
2022-09-12T02:19:43.585Z,21.18
2022-09-12T02:19:54.601Z,21.18
2022-09-12T02:20:05.628Z,21.17
2022-09-12T02:20:26.084Z,21.18
2022-09-12T02:20:47.438Z,21.18
2022-09-12T02:20:48.632Z,21.17
2022-09-12T02:20:53.594Z,21.15
2022-09-12T02:21:03.622Z,21.20
2022-09-12T02:21:14.640Z,21.17
2022-09-12T02:21:25.647Z,21.20
2022-09-12T02:21:36.561Z,21.20
2022-09-12T02:21:47.574Z,21.18
2022-09-12T02:21:58.580Z,21.18
2022-09-12T02:22:09.595Z,21.17
2022-09-12T02:22:20.594Z,21.17
2022-09-12T02:22:31.605Z,21.18
2022-09-12T02:22:42.671Z,21.18
2022-09-12T02:22:54.623Z,21.17
2022-09-12T02:23:05.683Z,21.18
2022-09-12T02:23:17.602Z,21.18
2022-09-12T02:23:28.615Z,21.17
2022-09-12T02:23:39.626Z,21.18
2022-09-12T02:23:50.650Z,21.18
2022-09-12T02:24:01.643Z,21.15